Latest Weather Observations for Barrow Island

IDW60801

Issued at 6:53 am WST Wednesday 18 September 2019 (issued every 10 minutes, with the page automatically refreshed every 10 minutes)

About weather observations | Map of weather stations | Latest weather observations for WA | Other Formats
Station Details ID: 005094 Name: BARROW ISLAND AIRPORT Lat: -20.87 Lon: 115.41 Height: 6.4 m
Data from the previous 72 hours. | See also: Recent months at Barrow Island
Date/Time
WST
Temp
°C
App
Temp
°C
Dew
Point
°C
Rel
Hum
%
Delta-T
°C
Wind Press
QNH
hPa
Press
MSL
hPa
Rain since
9am
mm
Dir  Spd
km/h
Gust
km/h
Spd
kts
Gust
kts
18/06:30am 23.5 19.7 16.8 66 4.1 SSW 32 39 17 21 1016.6 1016.6 0.0
18/06:00am 23.7 19.8 16.5 64 4.4 SSW 32 37 17 20 1016.5 1016.5 0.0
18/05:30am 23.6 19.3 15.9 62 4.7 SSW 33 39 18 21 1016.3 1016.3 0.0
18/05:00am 23.7 19.9 16.7 65 4.3 SSW 32 37 17 20 1016.2 1016.2 0.0
18/04:30am 24.1 19.7 15.6 59 5.1 SSW 33 37 18 20 1016.0 1016.0 0.0
18/04:00am 24.2 20.1 15.9 59 5.0 SSW 32 37 17 20 1015.8 1015.8 0.0
18/03:30am 24.3 20.9 15.8 59 5.1 SSW 28 35 15 19 1015.8 1015.8 0.0
18/03:00am 24.5 21.0 16.5 61 4.9 SSW 30 35 16 19 1015.8 1015.8 0.0
18/02:30am 24.7 21.9 17.2 63 4.7 SW 28 33 15 18 1016.0 1016.0 0.0
18/02:00am 24.8 21.5 16.0 58 5.4 SW 28 32 15 17 1016.1 1016.1 0.0
18/01:30am 24.8 22.7 18.0 66 4.3 SW 26 32 14 17 1016.3 1016.3 0.0
18/01:00am 24.2 23.5 18.6 71 3.5 SW 20 26 11 14 1016.4 1016.4 0.0
18/12:30am 23.8 23.5 19.1 75 3.0 WSW 19 24 10 13 1016.5 1016.5 0.0
18/12:00am 24.0 22.3 18.9 73 3.2 WSW 26 33 14 18 1016.7 1016.7 0.0
 
Date/Time
WST
Temp
°C
App
Temp
°C
Dew
Point
°C
Rel
Hum
%
Delta-T
°C
Wind Press
QNH
hPa
Press
MSL
hPa
Rain since
9am
mm
Dir  Spd
km/h
Gust
km/h
Spd
kts
Gust
kts
17/11:30pm 23.7 23.1 20.4 82 2.1 WSW 24 32 13 17 1016.8 1016.8 0.0
17/11:00pm 23.3 22.8 20.8 86 1.6 W 24 30 13 16 1016.8 1016.8 0.0
17/10:30pm 22.6 23.0 20.7 89 1.2 W 19 22 10 12 1016.7 1016.7 0.0
17/10:00pm 22.4 21.6 20.1 87 1.5 W 24 28 13 15 1016.7 1016.7 0.0
17/09:30pm 23.2 23.1 20.0 82 2.1 W 20 24 11 13 1017.3 1017.3 0.0
17/09:00pm 23.4 23.7 20.5 84 1.9 W 19 22 10 12 1017.3 1017.3 0.0
17/08:30pm 23.0 22.8 19.8 82 2.1 W 20 22 11 12 1016.8 1016.8 0.0
17/08:00pm 23.3 23.5 20.2 83 2.0 W 19 22 10 12 1016.4 1016.4 0.0
17/07:30pm 23.6 23.8 20.1 81 2.3 W 19 22 10 12 1016.2 1016.2 0.0
17/07:00pm 23.6 23.4 19.3 77 2.7 WNW 19 24 10 13 1015.8 1015.8 0.0
17/06:30pm 24.6 24.2 18.8 70 3.7 WNW 19 22 10 12 1015.5 1015.5 0.0
17/06:00pm 26.2 25.2 17.6 59 5.4 WNW 19 22 10 12 1015.4 1015.4 0.0
17/05:30pm 28.3 27.1 16.2 47 7.5 WNW 17 20 9 11 1015.1 1015.1 0.0
17/05:00pm 29.9 27.9 14.0 37 9.6 WNW 17 20 9 11 1014.8 1014.8 0.0
17/04:30pm 30.7 28.8 13.0 33 10.5 NW 15 22 8 12 1014.5 1014.5 0.0
17/04:00pm 31.3 29.6 13.6 34 10.6 NW 15 20 8 11 1014.2 1014.2 0.0
17/03:30pm 31.2 29.6 13.9 35 10.5 NW 15 24 8 13 1014.4 1014.4 0.0
17/03:00pm 30.5 32.5 19.2 51 7.4 S 7 17 4 9 1014.5 1014.5 0.0
17/02:30pm 27.3 29.2 20.6 67 4.4 S 11 15 6 8 1014.7 1014.7 0.0
17/02:00pm 28.0 28.6 20.3 63 5.1 SSW 17 19 9 10 1014.7 1014.7 0.0
17/01:30pm 27.8 28.0 19.3 60 5.5 SSW 17 19 9 10 1014.9 1014.9 0.0
17/01:00pm 27.6 28.8 19.9 63 5.0 SSW 13 17 7 9 1015.3 1015.3 0.0
17/12:30pm 27.3 28.4 20.4 66 4.5 SSW 15 17 8 9 1015.6 1015.6 0.0
17/12:00pm 27.1 27.6 20.0 65 4.6 SSW 17 19 9 10 1015.9 1015.9 0.0
17/11:30am 26.6 27.0 20.9 71 3.8 SSW 20 26 11 14 1016.3 1016.3 0.0
17/11:00am 26.3 26.4 19.9 68 4.2 SW 19 20 10 11 1016.4 1016.4 0.0
17/10:30am 26.5 27.1 20.3 68 4.1 SSW 17 19 9 10 1016.7 1016.7 0.0
17/10:00am 26.1 26.6 20.0 69 4.0 SSW 17 19 9 10 1016.7 1016.7 0.0
17/09:30am 26.0 27.4 21.0 74 3.3 SSW 15 19 8 10 1016.6 1016.6 0.0
17/09:00am 26.0 27.2 20.6 72 3.5 SW 15 19 8 10 1016.5 1016.5 0.2
17/08:30am 25.1 26.2 20.4 75 3.1 SW 15 17 8 9 1016.5 1016.5 0.2
17/08:00am 24.4 24.7 20.3 78 2.7 SW 19 20 10 11 1016.3 1016.3 0.2
17/07:30am 23.7 24.7 20.2 81 2.3 SW 15 19 8 10 1016.0 1016.0 0.2
17/07:00am 23.1 23.6 20.1 83 1.9 SSW 17 20 9 11 1015.8 1015.8 0.2
17/06:30am 22.5 22.8 20.4 88 1.4 SW 19 20 10 11 1015.7 1015.7 0.2
17/06:00am 22.7 22.8 20.4 87 1.5 SW 20 24 11 13 1015.5 1015.5 0.2
17/05:30am 22.9 22.3 20.4 86 1.6 SSW 24 28 13 15 1015.3 1015.3 0.2
17/05:00am 22.8 22.7 20.7 88 1.4 SW 22 28 12 15 1015.1 1015.1 0.2
17/04:30am 22.3 22.7 20.6 90 1.1 WSW 19 22 10 12 1014.9 1014.9 0.2
17/04:00am 21.6 22.9 20.2 92 0.9 WSW 13 15 7 8 1014.7 1014.7 0.0
17/03:30am 21.3 22.1 19.9 92 0.9 WSW 15 17 8 9 1014.7 1014.7 0.0
17/03:00am 21.3 22.6 20.1 93 0.8 W 13 15 7 8 1014.8 1014.8 0.0
17/02:30am 22.1 22.9 20.6 91 1.0 W 17 20 9 11 1014.9 1014.9 0.0
17/02:00am 22.5 23.1 21.0 91 1.0 WSW 19 24 10 13 1015.1 1015.1 0.0
17/01:30am 21.8 22.6 20.6 93 0.8 WSW 17 20 9 11 1015.3 1015.3 0.0
17/01:00am 19.9 20.9 18.7 93 0.7 W 11 15 6 8 1015.4 1015.4 0.0
17/12:30am 21.2 22.7 20.5 96 0.5 W 13 17 7 9 1015.4 1015.4 0.0
17/12:00am 21.8 22.7 20.8 94 0.6 W 17 20 9 11 1015.4 1015.4 0.0
 
Date/Time
WST
Temp
°C
App
Temp
°C
Dew
Point
°C
Rel
Hum
%
Delta-T
°C
Wind Press
QNH
hPa
Press
MSL
hPa
Rain since
9am
mm
Dir  Spd
km/h
Gust
km/h
Spd
kts
Gust
kts
16/11:30pm 22.4 23.7 21.6 95 0.5 W 17 20 9 11 1015.7 1015.7 0.0
16/11:00pm 21.9 23.2 20.9 94 0.6 WSW 15 19 8 10 1015.8 1015.8 0.0
16/10:30pm 21.8 23.8 21.5 98 0.2 W 13 17 7 9 1016.0 1016.0 0.0
16/10:00pm 21.4 21.6 20.6 95 0.5 WNW 20 22 11 12 1016.0 1016.0 0.0
16/09:30pm 21.4 21.7 20.7 96 0.5 WNW 20 22 11 12 1015.9 1015.9 0.0
16/09:00pm 21.7 22.1 20.7 94 0.6 WNW 19 20 10 11 1015.8 1015.8 0.0
16/08:30pm 22.0 22.5 20.8 93 0.8 WNW 19 20 10 11 1015.6 1015.6 0.0
16/08:00pm 22.6 23.4 21.4 93 0.8 WNW 19 22 10 12 1015.4 1015.4 0.0
16/07:30pm 23.1 24.0 21.5 91 1.1 W 19 24 10 13 1015.0 1015.0 0.0
16/07:00pm 23.5 24.2 21.6 89 1.3 W 20 24 11 13 1014.7 1014.7 0.0
16/06:30pm 24.2 24.6 21.7 86 1.7 W 22 28 12 15 1014.4 1014.4 0.0
16/06:00pm 25.2 24.8 20.9 77 2.8 W 24 28 13 15 1014.3 1014.3 0.0
16/05:30pm 26.5 26.0 19.9 67 4.3 WNW 22 28 12 15 1014.1 1014.1 0.0
16/05:00pm 27.9 27.0 18.3 56 6.1 WNW 20 26 11 14 1014.0 1014.0 0.0
16/04:30pm 29.2 28.7 18.6 52 6.8 W 19 24 10 13 1014.0 1014.0 0.0
16/04:00pm 29.4 29.2 18.5 52 7.0 W 17 20 9 11 1013.9 1013.9 0.0
16/03:30pm 27.7 28.7 22.2 72 3.7 SW 20 22 11 12 1013.9 1013.9 0.0
16/03:00pm 28.1 29.7 22.1 70 4.0 SW 17 20 9 11 1014.1 1014.1 0.0
16/02:30pm 27.5 28.8 22.4 73 3.4 SW 19 20 10 11 1014.1 1014.1 0.0
16/02:00pm 26.8 27.5 21.6 73 3.5 SSW 20 24 11 13 1014.3 1014.3 0.0
16/01:30pm 27.4 28.8 21.0 68 4.2 SSW 15 17 8 9 1014.6 1014.6 0.0
16/01:00pm 27.2 29.2 21.5 71 3.8 SSW 13 17 7 9 1015.1 1015.1 0.0
16/12:30pm 27.1 28.6 21.2 70 3.9 SSW 15 17 8 9 1015.5 1015.5 0.0
16/12:00pm 26.9 29.3 21.6 72 3.5 S 11 13 6 7 1015.8 1015.8 0.0
16/11:30am 26.0 28.6 21.2 75 3.2 SSW 9 15 5 8 1016.2 1016.2 0.0
16/11:00am 26.4 28.3 21.4 74 3.3 SSW 13 15 7 8 1016.5 1016.5 0.0
16/10:30am 26.5 28.6 21.7 75 3.2 SSW 13 17 7 9 1016.7 1016.7 0.0
16/10:00am 26.3 28.6 21.3 74 3.3 SSW 11 13 6 7 1016.8 1016.8 0.0
16/09:30am 25.5 27.6 21.0 76 3.0 SSW 11 13 6 7 1016.5 1016.5 0.0
16/09:00am 25.0 27.1 20.9 78 2.7 WSW 11 13 6 7 1016.5 1016.5 0.4
16/08:30am 24.3 26.0 21.0 82 2.2 SW 13 17 7 9 1016.4 1016.4 0.4
16/08:00am 23.5 25.5 21.6 89 1.3 SW 13 15 7 8 1016.1 1016.1 0.4
16/07:30am 22.7 26.1 22.0 96 0.5 W 7 11 4 6 1016.1 1016.1 0.4
16/07:00am 20.8 22.3 20.6 99 0.1 WSW 13 15 7 8 1015.6 1015.6 0.4
16/06:30am 19.5 20.1 19.5 100 0.0 WSW 15 17 8 9 1015.3 1015.3 0.4
16/06:00am 18.0 18.0 18.0 100 0.0 WSW 15 17 8 9 1015.2 1015.2 0.4
16/05:30am 18.4 18.8 18.1 98 0.2 WSW 13 15 7 8 1015.1 1015.1 0.4
16/05:00am 19.8 20.4 19.5 98 0.2 WSW 15 17 8 9 1015.1 1015.1 0.2
16/04:30am 20.0 20.4 19.8 99 0.1 WSW 17 17 9 9 1015.0 1015.0 0.2
16/04:00am 20.0 20.3 19.7 98 0.2 WSW 17 19 9 10 1014.8 1014.8 0.2
16/03:30am 20.5 21.4 20.0 97 0.3 WSW 15 17 8 9 1014.8 1014.8 0.2
16/03:00am 21.1 22.4 20.8 98 0.2 WSW 15 17 8 9 1014.9 1014.9 0.2
16/02:30am 21.4 23.2 21.1 98 0.2 WSW 13 15 7 8 1015.1 1015.1 0.0
16/02:00am 20.9 22.0 20.4 97 0.3 WSW 15 17 8 9 1015.4 1015.4 0.0
16/01:30am 21.1 21.9 20.6 97 0.3 WSW 17 19 9 10 1015.6 1015.6 0.0
16/01:00am 21.2 22.6 20.4 95 0.5 WSW 13 15 7 8 1015.8 1015.8 0.0
16/12:30am 21.7 23.9 21.2 97 0.3 WSW 11 15 6 8 1015.9 1015.9 0.0
16/12:00am 21.4 23.1 20.9 97 0.3 WSW 13 13 7 7 1016.0 1016.0 0.0
 
Date/Time
WST
Temp
°C
App
Temp
°C
Dew
Point
°C
Rel
Hum
%
Delta-T
°C
Wind Press
QNH
hPa
Press
MSL
hPa
Rain since
9am
mm
Dir  Spd
km/h
Gust
km/h
Spd
kts
Gust
kts
15/11:30pm 21.4 23.2 21.2 99 0.1 W 13 17 7 9 1015.9 1015.9 0.0
15/11:00pm 20.2 20.9 19.7 97 0.3 W 15 15 8 8 1015.8 1015.8 0.0
15/10:30pm 20.7 20.6 20.0 96 0.4 WNW 20 20 11 11 1015.7 1015.7 0.0
15/10:00pm 20.7 21.3 20.2 97 0.3 WNW 17 19 9 10 1016.0 1016.0 0.0
15/09:30pm 21.5 22.4 20.8 96 0.5 WNW 17 17 9 9 1016.0 1016.0 0.0
15/09:00pm 21.5 22.6 20.5 94 0.6 WNW 15 17 8 9 1015.9 1015.9 0.0
15/08:30pm 22.1 24.1 20.7 92 0.9 NW 11 15 6 8 1015.9 1015.9 0.0
15/08:00pm 22.5 22.9 20.6 89 1.2 NNW 19 20 10 11 1015.6 1015.6 0.0
15/07:30pm 22.4 23.9 18.8 80 2.3 NW 9 11 5 6 1015.2 1015.2 0.0
15/07:00pm 23.3 24.2 19.2 78 2.6 NW 13 15 7 8 1014.7 1014.7 0.0
15/06:30pm 24.5 25.9 19.6 74 3.2 W 11 15 6 8 1014.4 1014.4 0.0
15/06:00pm 26.5 26.9 18.1 60 5.3 WSW 13 15 7 8 1014.2 1014.2 0.0
15/05:30pm 28.5 27.7 16.1 47 7.7 W 15 17 8 9 1014.1 1014.1 0.0
15/05:00pm 27.6 28.0 19.9 63 5.0 SW 17 19 9 10 1014.3 1014.3 0.0
15/04:30pm 29.7 28.5 16.1 43 8.4 W 17 20 9 11 1014.1 1014.1 0.0
15/04:00pm 30.0 28.9 16.4 44 8.5 W 17 19 9 10 1014.2 1014.2 0.0
15/03:30pm 29.8 28.9 16.9 45 8.1 WSW 17 22 9 12 1014.4 1014.4 0.0
15/03:00pm 30.2 28.4 15.5 41 9.1 W 19 22 10 12 1014.6 1014.6 0.0
15/02:30pm 30.6 29.6 16.6 43 8.8 W 17 22 9 12 1014.7 1014.7 0.0
15/02:00pm 29.6 29.5 19.6 55 6.5 SW 19 22 10 12 1015.1 1015.1 0.0
15/01:30pm 27.9 28.1 16.8 50 6.9 SW 11 13 6 7 1015.4 1015.4 0.0
15/01:00pm 27.6 27.6 15.3 47 7.5 WSW 9 11 5 6 1015.8 1015.8 0.0
15/12:30pm 27.6 28.0 16.2 49 7.0 W 9 11 5 6 1016.2 1016.2 0.0
15/12:00pm 27.0 27.4 16.3 52 6.6 WSW 9 11 5 6 1016.7 1016.7 0.0
15/11:30am 27.1 27.9 16.4 52 6.6 SW 7 9 4 5 1016.9 1016.9 0.0
15/11:00am 26.5 26.7 15.8 51 6.5 ESE 9 11 5 6 1017.1 1017.1 0.0
15/10:30am 26.7 27.0 16.0 52 6.6 SSE 9 11 5 6 1017.4 1017.4 0.0
15/10:00am 25.6 26.1 16.5 57 5.6 SSE 9 11 5 6 1017.1 1017.1 0.0
15/09:30am 25.8 26.0 15.8 54 6.1 S 9 13 5 7 1017.2 1017.2 0.0
15/09:00am 25.2 25.5 16.1 57 5.6 SSW 9 13 5 7 1017.2 1017.2 0.2
15/08:30am 24.8 25.9 15.7 57 5.5 ESE 4 11 2 6 1017.2 1017.2 0.2
15/08:00am 23.9 24.7 16.4 63 4.6 ENE 7 7 4 4 1017.3 1017.3 0.2
15/07:30am 23.4 24.4 16.9 67 4.0 ESE 7 9 4 5 1017.1 1017.1 0.2
15/07:00am 22.3 22.6 17.0 72 3.2 SSE 11 13 6 7 1016.8 1016.8 0.2

Other formats

Comma delimited format used in spreadsheet applications
http://www.bom.gov.au/fwo/IDW60801/IDW60801.95304.axf

JavaScript Object Notation format (JSON) in row-major order
http://www.bom.gov.au/fwo/IDW60801/IDW60801.95304.json

Data quality

Most of these data are generated automatically and are frequently updated. Quality checks on data are not normally performed. It is possible for incorrect values to appear. Refer to information at About Latest Weather Observations and please check the disclaimer before using these data.